sensor_id;sensor_type;location;lat;lon;timestamp;P1;durP1;ratioP1;P2;durP2;ratioP2
75626;SDS011;67372;49.404;11.034;2024-03-17T00:02:05;6.95;;;2.90;;
75626;SDS011;67372;49.404;11.034;2024-03-17T00:04:31;6.70;;;2.88;;
75626;SDS011;67372;49.404;11.034;2024-03-17T00:06:56;6.63;;;3.20;;
75626;SDS011;67372;49.404;11.034;2024-03-17T00:09:22;5.93;;;2.92;;
75626;SDS011;67372;49.404;11.034;2024-03-17T00:11:47;6.35;;;3.53;;
75626;SDS011;67372;49.404;11.034;2024-03-17T00:14:13;11.13;;;3.42;;
75626;SDS011;67372;49.404;11.034;2024-03-17T00:16:38;10.15;;;4.22;;
75626;SDS011;67372;49.404;11.034;2024-03-17T00:19:03;7.75;;;3.83;;
75626;SDS011;67372;49.404;11.034;2024-03-17T00:21:29;8.73;;;3.67;;
75626;SDS011;67372;49.404;11.034;2024-03-17T00:23:54;7.43;;;3.42;;
75626;SDS011;67372;49.404;11.034;2024-03-17T00:26:20;8.10;;;3.85;;
75626;SDS011;67372;49.404;11.034;2024-03-17T00:28:46;6.53;;;3.60;;
75626;SDS011;67372;49.404;11.034;2024-03-17T00:31:11;7.97;;;3.72;;
75626;SDS011;67372;49.404;11.034;2024-03-17T00:33:37;7.20;;;3.25;;
75626;SDS011;67372;49.404;11.034;2024-03-17T00:36:02;5.55;;;2.80;;
75626;SDS011;67372;49.404;11.034;2024-03-17T00:38:28;7.20;;;3.05;;
75626;SDS011;67372;49.404;11.034;2024-03-17T00:40:54;7.15;;;3.08;;
75626;SDS011;67372;49.404;11.034;2024-03-17T00:43:19;5.32;;;2.90;;
75626;SDS011;67372;49.404;11.034;2024-03-17T00:45:51;9.35;;;3.22;;
75626;SDS011;67372;49.404;11.034;2024-03-17T00:48:17;6.85;;;2.90;;
75626;SDS011;67372;49.404;11.034;2024-03-17T00:50:42;5.13;;;2.80;;
75626;SDS011;67372;49.404;11.034;2024-03-17T00:53:08;5.95;;;2.65;;
75626;SDS011;67372;49.404;11.034;2024-03-17T00:55:33;5.50;;;2.65;;
75626;SDS011;67372;49.404;11.034;2024-03-17T00:57:58;5.55;;;3.15;;
75626;SDS011;67372;49.404;11.034;2024-03-17T01:00:24;5.50;;;3.03;;
75626;SDS011;67372;49.404;11.034;2024-03-17T01:02:49;6.15;;;2.85;;
75626;SDS011;67372;49.404;11.034;2024-03-17T01:05:15;5.80;;;2.83;;
75626;SDS011;67372;49.404;11.034;2024-03-17T01:07:40;5.78;;;2.92;;
75626;SDS011;67372;49.404;11.034;2024-03-17T01:10:06;6.18;;;3.05;;
75626;SDS011;67372;49.404;11.034;2024-03-17T01:12:31;6.53;;;3.05;;
75626;SDS011;67372;49.404;11.034;2024-03-17T01:14:57;5.88;;;2.92;;
75626;SDS011;67372;49.404;11.034;2024-03-17T01:17:22;5.85;;;3.22;;
75626;SDS011;67372;49.404;11.034;2024-03-17T01:19:48;7.57;;;3.58;;
75626;SDS011;67372;49.404;11.034;2024-03-17T01:22:13;6.68;;;3.00;;
75626;SDS011;67372;49.404;11.034;2024-03-17T01:24:38;6.55;;;3.05;;
75626;SDS011;67372;49.404;11.034;2024-03-17T01:27:04;5.85;;;3.10;;
75626;SDS011;67372;49.404;11.034;2024-03-17T01:29:29;7.22;;;3.60;;
75626;SDS011;67372;49.404;11.034;2024-03-17T01:31:55;6.68;;;3.10;;
75626;SDS011;67372;49.404;11.034;2024-03-17T01:34:22;7.57;;;3.72;;
75626;SDS011;67372;49.404;11.034;2024-03-17T01:36:47;6.35;;;3.30;;
75626;SDS011;67372;49.404;11.034;2024-03-17T01:39:13;6.75;;;2.97;;
75626;SDS011;67372;49.404;11.034;2024-03-17T01:41:39;8.95;;;3.72;;
75626;SDS011;67372;49.404;11.034;2024-03-17T01:44:04;6.78;;;3.40;;
75626;SDS011;67372;49.404;11.034;2024-03-17T01:46:30;6.75;;;3.35;;
75626;SDS011;67372;49.404;11.034;2024-03-17T01:48:56;6.78;;;3.47;;
75626;SDS011;67372;49.404;11.034;2024-03-17T01:51:21;8.23;;;3.65;;
75626;SDS011;67372;49.404;11.034;2024-03-17T01:53:47;5.72;;;3.30;;
75626;SDS011;67372;49.404;11.034;2024-03-17T01:56:13;7.10;;;3.33;;
75626;SDS011;67372;49.404;11.034;2024-03-17T01:58:42;7.22;;;3.25;;
75626;SDS011;67372;49.404;11.034;2024-03-17T02:01:09;6.15;;;3.10;;
75626;SDS011;67372;49.404;11.034;2024-03-17T02:03:35;4.88;;;2.85;;
75626;SDS011;67372;49.404;11.034;2024-03-17T02:06:00;6.57;;;3.25;;
75626;SDS011;67372;49.404;11.034;2024-03-17T02:08:25;6.88;;;3.35;;
75626;SDS011;67372;49.404;11.034;2024-03-17T02:10:52;6.00;;;3.53;;
75626;SDS011;67372;49.404;11.034;2024-03-17T02:13:18;7.32;;;3.55;;
75626;SDS011;67372;49.404;11.034;2024-03-17T02:15:44;6.80;;;3.50;;
75626;SDS011;67372;49.404;11.034;2024-03-17T02:18:09;6.55;;;3.80;;
75626;SDS011;67372;49.404;11.034;2024-03-17T02:20:35;6.70;;;3.40;;
75626;SDS011;67372;49.404;11.034;2024-03-17T02:23:00;7.82;;;3.33;;
75626;SDS011;67372;49.404;11.034;2024-03-17T02:25:26;6.30;;;3.30;;
75626;SDS011;67372;49.404;11.034;2024-03-17T02:27:51;7.95;;;3.33;;
75626;SDS011;67372;49.404;11.034;2024-03-17T02:30:17;6.57;;;3.00;;
75626;SDS011;67372;49.404;11.034;2024-03-17T02:32:42;7.60;;;3.40;;
75626;SDS011;67372;49.404;11.034;2024-03-17T02:35:07;7.35;;;3.28;;
75626;SDS011;67372;49.404;11.034;2024-03-17T02:37:33;10.90;;;3.30;;
75626;SDS011;67372;49.404;11.034;2024-03-17T02:39:58;6.07;;;2.85;;
75626;SDS011;67372;49.404;11.034;2024-03-17T02:42:24;6.35;;;3.13;;
75626;SDS011;67372;49.404;11.034;2024-03-17T02:44:49;6.50;;;3.20;;
75626;SDS011;67372;49.404;11.034;2024-03-17T02:47:15;7.38;;;3.20;;
75626;SDS011;67372;49.404;11.034;2024-03-17T02:49:40;8.57;;;3.58;;
75626;SDS011;67372;49.404;11.034;2024-03-17T02:52:06;7.68;;;3.95;;
75626;SDS011;67372;49.404;11.034;2024-03-17T02:54:32;7.18;;;3.15;;
75626;SDS011;67372;49.404;11.034;2024-03-17T02:56:58;6.28;;;3.50;;
75626;SDS011;67372;49.404;11.034;2024-03-17T02:59:24;7.70;;;3.72;;
75626;SDS011;67372;49.404;11.034;2024-03-17T03:01:50;7.20;;;3.33;;
75626;SDS011;67372;49.404;11.034;2024-03-17T03:04:16;7.10;;;3.67;;
75626;SDS011;67372;49.404;11.034;2024-03-17T03:06:41;6.45;;;3.38;;
75626;SDS011;67372;49.404;11.034;2024-03-17T03:09:07;7.38;;;3.97;;
75626;SDS011;67372;49.404;11.034;2024-03-17T03:11:32;8.40;;;3.67;;
75626;SDS011;67372;49.404;11.034;2024-03-17T03:13:58;6.88;;;3.10;;
75626;SDS011;67372;49.404;11.034;2024-03-17T03:16:23;6.50;;;3.85;;
75626;SDS011;67372;49.404;11.034;2024-03-17T03:18:50;7.07;;;3.47;;
75626;SDS011;67372;49.404;11.034;2024-03-17T03:21:15;6.18;;;3.08;;
75626;SDS011;67372;49.404;11.034;2024-03-17T03:23:41;6.38;;;3.47;;
75626;SDS011;67372;49.404;11.034;2024-03-17T03:26:06;7.68;;;3.75;;
75626;SDS011;67372;49.404;11.034;2024-03-17T03:28:32;6.18;;;3.40;;
75626;SDS011;67372;49.404;11.034;2024-03-17T03:30:57;6.35;;;3.58;;
75626;SDS011;67372;49.404;11.034;2024-03-17T03:33:23;8.38;;;3.92;;
75626;SDS011;67372;49.404;11.034;2024-03-17T03:35:48;6.43;;;3.38;;
75626;SDS011;67372;49.404;11.034;2024-03-17T03:38:14;7.22;;;3.20;;
75626;SDS011;67372;49.404;11.034;2024-03-17T03:40:40;8.40;;;3.63;;
75626;SDS011;67372;49.404;11.034;2024-03-17T03:43:06;7.30;;;3.55;;
75626;SDS011;67372;49.404;11.034;2024-03-17T03:45:32;6.72;;;3.53;;
75626;SDS011;67372;49.404;11.034;2024-03-17T03:47:58;7.22;;;3.67;;
75626;SDS011;67372;49.404;11.034;2024-03-17T03:50:24;6.50;;;2.63;;
75626;SDS011;67372;49.404;11.034;2024-03-17T03:52:49;7.18;;;3.70;;
75626;SDS011;67372;49.404;11.034;2024-03-17T03:55:15;7.90;;;3.53;;
75626;SDS011;67372;49.404;11.034;2024-03-17T03:57:41;7.38;;;3.70;;
75626;SDS011;67372;49.404;11.034;2024-03-17T04:00:07;10.50;;;4.03;;
75626;SDS011;67372;49.404;11.034;2024-03-17T04:02:33;9.05;;;4.15;;
75626;SDS011;67372;49.404;11.034;2024-03-17T04:04:59;6.47;;;3.70;;
75626;SDS011;67372;49.404;11.034;2024-03-17T04:07:24;5.88;;;3.53;;
75626;SDS011;67372;49.404;11.034;2024-03-17T04:09:50;9.43;;;4.18;;
75626;SDS011;67372;49.404;11.034;2024-03-17T04:12:15;9.20;;;4.20;;
75626;SDS011;67372;49.404;11.034;2024-03-17T04:14:41;7.88;;;3.78;;
75626;SDS011;67372;49.404;11.034;2024-03-17T04:17:06;9.68;;;4.20;;
75626;SDS011;67372;49.404;11.034;2024-03-17T04:19:32;7.43;;;3.45;;
75626;SDS011;67372;49.404;11.034;2024-03-17T04:21:57;8.77;;;3.90;;
75626;SDS011;67372;49.404;11.034;2024-03-17T04:24:22;6.55;;;3.33;;
75626;SDS011;67372;49.404;11.034;2024-03-17T04:26:48;7.63;;;3.80;;
75626;SDS011;67372;49.404;11.034;2024-03-17T04:29:13;6.85;;;2.83;;
75626;SDS011;67372;49.404;11.034;2024-03-17T04:31:39;8.15;;;3.58;;
75626;SDS011;67372;49.404;11.034;2024-03-17T04:34:04;7.90;;;3.72;;
75626;SDS011;67372;49.404;11.034;2024-03-17T04:36:30;7.53;;;3.80;;
75626;SDS011;67372;49.404;11.034;2024-03-17T04:38:55;8.82;;;3.72;;
75626;SDS011;67372;49.404;11.034;2024-03-17T04:41:20;8.00;;;3.92;;
75626;SDS011;67372;49.404;11.034;2024-03-17T04:43:46;8.77;;;3.90;;
75626;SDS011;67372;49.404;11.034;2024-03-17T04:46:11;8.25;;;3.65;;
75626;SDS011;67372;49.404;11.034;2024-03-17T04:48:37;6.53;;;3.22;;
75626;SDS011;67372;49.404;11.034;2024-03-17T04:51:03;7.60;;;3.63;;
75626;SDS011;67372;49.404;11.034;2024-03-17T04:53:28;7.38;;;3.65;;
75626;SDS011;67372;49.404;11.034;2024-03-17T04:55:58;6.97;;;3.22;;
75626;SDS011;67372;49.404;11.034;2024-03-17T04:58:28;6.45;;;3.67;;
75626;SDS011;67372;49.404;11.034;2024-03-17T05:00:53;6.53;;;3.15;;
75626;SDS011;67372;49.404;11.034;2024-03-17T05:03:18;6.68;;;3.90;;
75626;SDS011;67372;49.404;11.034;2024-03-17T05:05:44;6.72;;;3.25;;
75626;SDS011;67372;49.404;11.034;2024-03-17T05:08:09;6.20;;;3.25;;
75626;SDS011;67372;49.404;11.034;2024-03-17T05:10:35;6.85;;;4.13;;
75626;SDS011;67372;49.404;11.034;2024-03-17T05:13:00;7.68;;;3.70;;
75626;SDS011;67372;49.404;11.034;2024-03-17T05:15:26;6.30;;;3.30;;
75626;SDS011;67372;49.404;11.034;2024-03-17T05:17:51;8.45;;;3.53;;
75626;SDS011;67372;49.404;11.034;2024-03-17T05:20:16;7.03;;;3.55;;
75626;SDS011;67372;49.404;11.034;2024-03-17T05:22:42;7.13;;;3.78;;
75626;SDS011;67372;49.404;11.034;2024-03-17T05:25:07;9.50;;;4.10;;
75626;SDS011;67372;49.404;11.034;2024-03-17T05:27:33;8.00;;;4.47;;
75626;SDS011;67372;49.404;11.034;2024-03-17T05:29:58;8.13;;;4.25;;
75626;SDS011;67372;49.404;11.034;2024-03-17T05:32:24;7.65;;;3.58;;
75626;SDS011;67372;49.404;11.034;2024-03-17T05:34:49;8.13;;;4.10;;
75626;SDS011;67372;49.404;11.034;2024-03-17T05:37:15;6.15;;;3.70;;
75626;SDS011;67372;49.404;11.034;2024-03-17T05:39:40;8.73;;;4.03;;
75626;SDS011;67372;49.404;11.034;2024-03-17T05:42:06;8.43;;;3.75;;
75626;SDS011;67372;49.404;11.034;2024-03-17T05:44:31;8.38;;;4.10;;
75626;SDS011;67372;49.404;11.034;2024-03-17T05:46:56;9.38;;;4.13;;
75626;SDS011;67372;49.404;11.034;2024-03-17T05:49:22;7.43;;;4.10;;
75626;SDS011;67372;49.404;11.034;2024-03-17T05:51:47;7.43;;;3.95;;
75626;SDS011;67372;49.404;11.034;2024-03-17T05:54:13;7.25;;;3.50;;
75626;SDS011;67372;49.404;11.034;2024-03-17T05:56:38;9.05;;;4.10;;
75626;SDS011;67372;49.404;11.034;2024-03-17T05:59:04;8.23;;;4.03;;
75626;SDS011;67372;49.404;11.034;2024-03-17T06:01:29;7.80;;;4.18;;
75626;SDS011;67372;49.404;11.034;2024-03-17T06:03:54;8.52;;;3.90;;
75626;SDS011;67372;49.404;11.034;2024-03-17T06:06:20;8.35;;;3.97;;
75626;SDS011;67372;49.404;11.034;2024-03-17T06:08:45;8.00;;;4.10;;
75626;SDS011;67372;49.404;11.034;2024-03-17T06:11:11;8.05;;;3.97;;
75626;SDS011;67372;49.404;11.034;2024-03-17T06:13:36;6.85;;;3.63;;
75626;SDS011;67372;49.404;11.034;2024-03-17T06:16:02;8.25;;;4.30;;
75626;SDS011;67372;49.404;11.034;2024-03-17T06:18:28;8.02;;;3.72;;
75626;SDS011;67372;49.404;11.034;2024-03-17T06:20:54;9.95;;;4.22;;
75626;SDS011;67372;49.404;11.034;2024-03-17T06:23:19;7.90;;;3.70;;
75626;SDS011;67372;49.404;11.034;2024-03-17T06:25:45;8.27;;;3.90;;
75626;SDS011;67372;49.404;11.034;2024-03-17T06:28:12;7.88;;;3.80;;
75626;SDS011;67372;49.404;11.034;2024-03-17T06:30:40;7.22;;;3.53;;
75626;SDS011;67372;49.404;11.034;2024-03-17T06:33:05;8.80;;;4.25;;
75626;SDS011;67372;49.404;11.034;2024-03-17T06:35:31;7.80;;;3.95;;
75626;SDS011;67372;49.404;11.034;2024-03-17T06:37:59;7.22;;;4.28;;
75626;SDS011;67372;49.404;11.034;2024-03-17T06:40:25;7.80;;;4.00;;
75626;SDS011;67372;49.404;11.034;2024-03-17T06:42:51;10.60;;;4.53;;
75626;SDS011;67372;49.404;11.034;2024-03-17T06:45:16;7.13;;;4.20;;
75626;SDS011;67372;49.404;11.034;2024-03-17T06:47:41;8.57;;;4.32;;
75626;SDS011;67372;49.404;11.034;2024-03-17T06:50:07;8.02;;;4.35;;
75626;SDS011;67372;49.404;11.034;2024-03-17T06:52:33;9.57;;;4.88;;
75626;SDS011;67372;49.404;11.034;2024-03-17T06:54:58;8.60;;;4.38;;
75626;SDS011;67372;49.404;11.034;2024-03-17T06:57:24;8.65;;;4.40;;
75626;SDS011;67372;49.404;11.034;2024-03-17T06:59:50;8.85;;;4.43;;
75626;SDS011;67372;49.404;11.034;2024-03-17T07:02:15;7.80;;;4.22;;
75626;SDS011;67372;49.404;11.034;2024-03-17T07:04:41;7.30;;;4.25;;
75626;SDS011;67372;49.404;11.034;2024-03-17T07:07:06;7.82;;;3.95;;
75626;SDS011;67372;49.404;11.034;2024-03-17T07:09:32;8.52;;;4.53;;
75626;SDS011;67372;49.404;11.034;2024-03-17T07:11:57;9.85;;;4.05;;
75626;SDS011;67372;49.404;11.034;2024-03-17T07:14:23;8.25;;;4.10;;
75626;SDS011;67372;49.404;11.034;2024-03-17T07:16:48;7.40;;;3.60;;
75626;SDS011;67372;49.404;11.034;2024-03-17T07:19:14;9.02;;;4.30;;
75626;SDS011;67372;49.404;11.034;2024-03-17T07:21:39;7.45;;;3.63;;
75626;SDS011;67372;49.404;11.034;2024-03-17T07:24:04;7.20;;;3.92;;
75626;SDS011;67372;49.404;11.034;2024-03-17T07:26:30;7.97;;;4.00;;
75626;SDS011;67372;49.404;11.034;2024-03-17T07:28:56;8.25;;;4.20;;
75626;SDS011;67372;49.404;11.034;2024-03-17T07:31:21;9.88;;;4.60;;
75626;SDS011;67372;49.404;11.034;2024-03-17T07:33:47;8.10;;;4.00;;
75626;SDS011;67372;49.404;11.034;2024-03-17T07:36:12;9.55;;;4.43;;
75626;SDS011;67372;49.404;11.034;2024-03-17T07:38:38;8.05;;;4.47;;
75626;SDS011;67372;49.404;11.034;2024-03-17T07:41:04;7.55;;;4.25;;
75626;SDS011;67372;49.404;11.034;2024-03-17T07:43:31;7.75;;;4.10;;
75626;SDS011;67372;49.404;11.034;2024-03-17T07:46:07;9.45;;;4.97;;
75626;SDS011;67372;49.404;11.034;2024-03-17T07:48:34;9.55;;;4.63;;
75626;SDS011;67372;49.404;11.034;2024-03-17T07:51:02;8.65;;;4.68;;
75626;SDS011;67372;49.404;11.034;2024-03-17T07:53:29;8.23;;;4.30;;
75626;SDS011;67372;49.404;11.034;2024-03-17T07:56:14;9.10;;;4.82;;
75626;SDS011;67372;49.404;11.034;2024-03-17T07:58:41;8.93;;;4.55;;
75626;SDS011;67372;49.404;11.034;2024-03-17T08:03:34;8.77;;;4.50;;
75626;SDS011;67372;49.404;11.034;2024-03-17T08:06:02;8.93;;;4.43;;
75626;SDS011;67372;49.404;11.034;2024-03-17T08:08:28;12.18;;;5.47;;
75626;SDS011;67372;49.404;11.034;2024-03-17T08:10:54;9.68;;;5.07;;
75626;SDS011;67372;49.404;11.034;2024-03-17T08:13:20;11.07;;;5.13;;
75626;SDS011;67372;49.404;11.034;2024-03-17T08:15:54;7.35;;;4.72;;
75626;SDS011;67372;49.404;11.034;2024-03-17T08:18:21;8.13;;;4.43;;
75626;SDS011;67372;49.404;11.034;2024-03-17T08:20:47;9.05;;;3.92;;
75626;SDS011;67372;49.404;11.034;2024-03-17T08:23:12;5.97;;;3.55;;
75626;SDS011;67372;49.404;11.034;2024-03-17T08:25:38;8.65;;;4.35;;
75626;SDS011;67372;49.404;11.034;2024-03-17T08:28:04;10.95;;;4.55;;
75626;SDS011;67372;49.404;11.034;2024-03-17T08:30:30;9.88;;;4.18;;
75626;SDS011;67372;49.404;11.034;2024-03-17T08:32:55;7.38;;;3.90;;
75626;SDS011;67372;49.404;11.034;2024-03-17T08:35:22;8.75;;;4.05;;
75626;SDS011;67372;49.404;11.034;2024-03-17T08:37:48;7.85;;;3.65;;
75626;SDS011;67372;49.404;11.034;2024-03-17T08:40:13;7.95;;;3.70;;
75626;SDS011;67372;49.404;11.034;2024-03-17T08:42:39;7.45;;;4.28;;
75626;SDS011;67372;49.404;11.034;2024-03-17T08:45:05;7.97;;;4.10;;
75626;SDS011;67372;49.404;11.034;2024-03-17T08:47:31;6.65;;;3.72;;
75626;SDS011;67372;49.404;11.034;2024-03-17T08:49:56;6.70;;;3.63;;
75626;SDS011;67372;49.404;11.034;2024-03-17T08:52:22;7.93;;;4.20;;
75626;SDS011;67372;49.404;11.034;2024-03-17T08:54:48;7.20;;;4.05;;
75626;SDS011;67372;49.404;11.034;2024-03-17T08:57:13;9.32;;;3.97;;
75626;SDS011;67372;49.404;11.034;2024-03-17T08:59:39;7.30;;;3.58;;
75626;SDS011;67372;49.404;11.034;2024-03-17T09:02:05;7.50;;;4.00;;
75626;SDS011;67372;49.404;11.034;2024-03-17T09:04:36;6.57;;;3.63;;
75626;SDS011;67372;49.404;11.034;2024-03-17T09:07:02;6.60;;;3.75;;
75626;SDS011;67372;49.404;11.034;2024-03-17T09:09:27;6.72;;;3.83;;
75626;SDS011;67372;49.404;11.034;2024-03-17T09:11:53;7.20;;;3.22;;
75626;SDS011;67372;49.404;11.034;2024-03-17T09:14:18;7.35;;;3.72;;
75626;SDS011;67372;49.404;11.034;2024-03-17T09:16:44;6.40;;;3.30;;
75626;SDS011;67372;49.404;11.034;2024-03-17T09:19:09;7.00;;;3.88;;
75626;SDS011;67372;49.404;11.034;2024-03-17T09:21:34;7.28;;;3.55;;
75626;SDS011;67372;49.404;11.034;2024-03-17T09:24:00;9.25;;;4.18;;
75626;SDS011;67372;49.404;11.034;2024-03-17T09:26:25;6.65;;;3.35;;
75626;SDS011;67372;49.404;11.034;2024-03-17T09:28:51;6.28;;;3.35;;
75626;SDS011;67372;49.404;11.034;2024-03-17T09:31:16;5.88;;;3.05;;
75626;SDS011;67372;49.404;11.034;2024-03-17T09:33:42;5.88;;;2.75;;
75626;SDS011;67372;49.404;11.034;2024-03-17T09:36:08;6.68;;;2.97;;
75626;SDS011;67372;49.404;11.034;2024-03-17T09:38:35;5.20;;;2.67;;
75626;SDS011;67372;49.404;11.034;2024-03-17T09:41:01;6.72;;;2.80;;
75626;SDS011;67372;49.404;11.034;2024-03-17T09:43:27;8.48;;;4.03;;
75626;SDS011;67372;49.404;11.034;2024-03-17T09:45:54;8.02;;;3.33;;
75626;SDS011;67372;49.404;11.034;2024-03-17T09:48:20;7.40;;;3.00;;
75626;SDS011;67372;49.404;11.034;2024-03-17T09:51:07;5.97;;;3.20;;
75626;SDS011;67372;49.404;11.034;2024-03-17T09:53:33;7.00;;;3.47;;
75626;SDS011;67372;49.404;11.034;2024-03-17T09:56:09;8.05;;;3.40;;
75626;SDS011;67372;49.404;11.034;2024-03-17T09:58:36;6.85;;;3.40;;
75626;SDS011;67372;49.404;11.034;2024-03-17T10:01:01;6.45;;;2.97;;
75626;SDS011;67372;49.404;11.034;2024-03-17T10:03:45;5.15;;;2.70;;
75626;SDS011;67372;49.404;11.034;2024-03-17T10:06:15;4.70;;;2.50;;
75626;SDS011;67372;49.404;11.034;2024-03-17T10:11:11;6.30;;;3.13;;
75626;SDS011;67372;49.404;11.034;2024-03-17T10:13:37;5.05;;;2.60;;
75626;SDS011;67372;49.404;11.034;2024-03-17T10:16:02;5.22;;;3.08;;
75626;SDS011;67372;49.404;11.034;2024-03-17T10:18:28;5.22;;;2.70;;
75626;SDS011;67372;49.404;11.034;2024-03-17T10:20:53;5.40;;;2.88;;
75626;SDS011;67372;49.404;11.034;2024-03-17T10:23:19;5.80;;;2.97;;
75626;SDS011;67372;49.404;11.034;2024-03-17T10:25:44;4.93;;;3.22;;
75626;SDS011;67372;49.404;11.034;2024-03-17T10:28:10;7.45;;;3.40;;
75626;SDS011;67372;49.404;11.034;2024-03-17T10:30:36;7.38;;;3.50;;
75626;SDS011;67372;49.404;11.034;2024-03-17T10:33:02;5.38;;;2.90;;
75626;SDS011;67372;49.404;11.034;2024-03-17T10:35:35;6.03;;;3.38;;
75626;SDS011;67372;49.404;11.034;2024-03-17T10:38:02;5.82;;;2.90;;
75626;SDS011;67372;49.404;11.034;2024-03-17T10:40:29;5.60;;;2.95;;
75626;SDS011;67372;49.404;11.034;2024-03-17T10:42:56;6.35;;;3.17;;
75626;SDS011;67372;49.404;11.034;2024-03-17T10:45:22;6.90;;;3.40;;
75626;SDS011;67372;49.404;11.034;2024-03-17T10:47:49;6.30;;;3.17;;
75626;SDS011;67372;49.404;11.034;2024-03-17T10:50:16;6.88;;;3.30;;
75626;SDS011;67372;49.404;11.034;2024-03-17T10:52:47;6.88;;;3.75;;
75626;SDS011;67372;49.404;11.034;2024-03-17T10:55:19;5.75;;;2.85;;
75626;SDS011;67372;49.404;11.034;2024-03-17T10:57:46;5.07;;;2.70;;
75626;SDS011;67372;49.404;11.034;2024-03-17T11:00:13;7.72;;;3.28;;
75626;SDS011;67372;49.404;11.034;2024-03-17T11:02:40;6.63;;;3.13;;
75626;SDS011;67372;49.404;11.034;2024-03-17T11:05:10;5.50;;;3.25;;
75626;SDS011;67372;49.404;11.034;2024-03-17T11:07:39;4.80;;;3.30;;
75626;SDS011;67372;49.404;11.034;2024-03-17T11:10:05;7.25;;;3.50;;
75626;SDS011;67372;49.404;11.034;2024-03-17T11:17:50;5.65;;;2.92;;
75626;SDS011;67372;49.404;11.034;2024-03-17T11:20:29;8.55;;;3.90;;
75626;SDS011;67372;49.404;11.034;2024-03-17T11:22:55;6.13;;;3.60;;
75626;SDS011;67372;49.404;11.034;2024-03-17T11:27:50;6.00;;;3.30;;
75626;SDS011;67372;49.404;11.034;2024-03-17T11:33:46;5.80;;;3.35;;
75626;SDS011;67372;49.404;11.034;2024-03-17T11:38:55;6.32;;;3.50;;
75626;SDS011;67372;49.404;11.034;2024-03-17T11:44:15;5.25;;;3.40;;
75626;SDS011;67372;49.404;11.034;2024-03-17T11:46:50;6.43;;;3.40;;
75626;SDS011;67372;49.404;11.034;2024-03-17T11:51:58;5.43;;;3.30;;
75626;SDS011;67372;49.404;11.034;2024-03-17T11:54:26;5.85;;;3.33;;
75626;SDS011;67372;49.404;11.034;2024-03-17T11:56:52;5.93;;;3.85;;
75626;SDS011;67372;49.404;11.034;2024-03-17T11:59:19;6.72;;;3.50;;
75626;SDS011;67372;49.404;11.034;2024-03-17T12:01:46;6.15;;;3.38;;
75626;SDS011;67372;49.404;11.034;2024-03-17T12:04:12;7.32;;;3.65;;
75626;SDS011;67372;49.404;11.034;2024-03-17T12:06:59;5.47;;;3.17;;
75626;SDS011;67372;49.404;11.034;2024-03-17T12:09:28;4.90;;;3.22;;
75626;SDS011;67372;49.404;11.034;2024-03-17T12:14:31;4.95;;;3.25;;
75626;SDS011;67372;49.404;11.034;2024-03-17T12:17:00;6.40;;;3.55;;
75626;SDS011;67372;49.404;11.034;2024-03-17T12:19:27;6.95;;;3.47;;
75626;SDS011;67372;49.404;11.034;2024-03-17T12:21:53;5.47;;;3.58;;
75626;SDS011;67372;49.404;11.034;2024-03-17T12:24:21;5.55;;;3.15;;
75626;SDS011;67372;49.404;11.034;2024-03-17T12:26:49;6.00;;;3.42;;
75626;SDS011;67372;49.404;11.034;2024-03-17T12:32:00;5.75;;;3.42;;
75626;SDS011;67372;49.404;11.034;2024-03-17T12:34:27;6.40;;;3.53;;
75626;SDS011;67372;49.404;11.034;2024-03-17T12:36:55;6.13;;;3.40;;
75626;SDS011;67372;49.404;11.034;2024-03-17T12:39:24;5.75;;;3.33;;
75626;SDS011;67372;49.404;11.034;2024-03-17T12:44:40;7.60;;;3.38;;
75626;SDS011;67372;49.404;11.034;2024-03-17T12:47:19;6.40;;;3.65;;
75626;SDS011;67372;49.404;11.034;2024-03-17T12:54:59;6.70;;;3.67;;
75626;SDS011;67372;49.404;11.034;2024-03-17T12:57:25;6.03;;;3.47;;
75626;SDS011;67372;49.404;11.034;2024-03-17T12:59:51;6.68;;;3.80;;
75626;SDS011;67372;49.404;11.034;2024-03-17T13:02:16;6.40;;;3.63;;
75626;SDS011;67372;49.404;11.034;2024-03-17T13:04:42;6.20;;;3.80;;
75626;SDS011;67372;49.404;11.034;2024-03-17T13:07:11;5.53;;;3.55;;
75626;SDS011;67372;49.404;11.034;2024-03-17T13:09:37;7.20;;;3.90;;
75626;SDS011;67372;49.404;11.034;2024-03-17T13:12:02;7.38;;;3.72;;
75626;SDS011;67372;49.404;11.034;2024-03-17T13:14:39;6.00;;;3.53;;
75626;SDS011;67372;49.404;11.034;2024-03-17T13:17:05;6.28;;;3.63;;
75626;SDS011;67372;49.404;11.034;2024-03-17T13:19:32;5.78;;;3.67;;
75626;SDS011;67372;49.404;11.034;2024-03-17T13:21:57;6.97;;;3.88;;
75626;SDS011;67372;49.404;11.034;2024-03-17T13:24:23;5.88;;;3.28;;
75626;SDS011;67372;49.404;11.034;2024-03-17T13:26:48;5.80;;;3.13;;
75626;SDS011;67372;49.404;11.034;2024-03-17T13:29:14;5.32;;;2.80;;
75626;SDS011;67372;49.404;11.034;2024-03-17T13:31:39;6.75;;;3.10;;
75626;SDS011;67372;49.404;11.034;2024-03-17T13:34:05;7.85;;;3.00;;
75626;SDS011;67372;49.404;11.034;2024-03-17T13:36:30;5.72;;;3.45;;
75626;SDS011;67372;49.404;11.034;2024-03-17T13:38:56;6.43;;;3.05;;
75626;SDS011;67372;49.404;11.034;2024-03-17T13:41:21;5.20;;;3.42;;
75626;SDS011;67372;49.404;11.034;2024-03-17T13:43:47;5.50;;;3.50;;
75626;SDS011;67372;49.404;11.034;2024-03-17T13:46:12;5.88;;;3.65;;
75626;SDS011;67372;49.404;11.034;2024-03-17T13:48:37;6.68;;;3.38;;
75626;SDS011;67372;49.404;11.034;2024-03-17T13:51:03;5.97;;;3.72;;
75626;SDS011;67372;49.404;11.034;2024-03-17T13:53:28;5.30;;;3.00;;
75626;SDS011;67372;49.404;11.034;2024-03-17T13:55:54;5.28;;;3.20;;
75626;SDS011;67372;49.404;11.034;2024-03-17T13:58:19;5.45;;;3.58;;
75626;SDS011;67372;49.404;11.034;2024-03-17T14:00:45;5.75;;;3.33;;
75626;SDS011;67372;49.404;11.034;2024-03-17T14:03:10;4.65;;;3.33;;
75626;SDS011;67372;49.404;11.034;2024-03-17T14:05:35;6.00;;;3.00;;
75626;SDS011;67372;49.404;11.034;2024-03-17T14:08:01;6.07;;;3.30;;
75626;SDS011;67372;49.404;11.034;2024-03-17T14:10:26;6.32;;;3.30;;
75626;SDS011;67372;49.404;11.034;2024-03-17T14:12:52;4.18;;;3.10;;
75626;SDS011;67372;49.404;11.034;2024-03-17T14:15:17;4.72;;;3.20;;
75626;SDS011;67372;49.404;11.034;2024-03-17T14:17:44;3.92;;;2.83;;
75626;SDS011;67372;49.404;11.034;2024-03-17T14:20:10;4.93;;;2.88;;
75626;SDS011;67372;49.404;11.034;2024-03-17T14:22:36;6.32;;;3.00;;
75626;SDS011;67372;49.404;11.034;2024-03-17T14:25:03;4.97;;;2.88;;
75626;SDS011;67372;49.404;11.034;2024-03-17T14:27:32;5.28;;;3.00;;
75626;SDS011;67372;49.404;11.034;2024-03-17T14:29:58;4.75;;;3.00;;
75626;SDS011;67372;49.404;11.034;2024-03-17T14:32:23;5.10;;;2.80;;
75626;SDS011;67372;49.404;11.034;2024-03-17T14:34:49;5.50;;;3.30;;
75626;SDS011;67372;49.404;11.034;2024-03-17T14:37:14;4.63;;;2.80;;
75626;SDS011;67372;49.404;11.034;2024-03-17T14:39:40;5.13;;;2.50;;
75626;SDS011;67372;49.404;11.034;2024-03-17T14:42:05;4.75;;;2.53;;
75626;SDS011;67372;49.404;11.034;2024-03-17T14:44:31;4.60;;;2.88;;
75626;SDS011;67372;49.404;11.034;2024-03-17T14:46:56;5.28;;;3.42;;
75626;SDS011;67372;49.404;11.034;2024-03-17T14:49:22;5.68;;;3.33;;
75626;SDS011;67372;49.404;11.034;2024-03-17T14:51:47;4.03;;;2.58;;
75626;SDS011;67372;49.404;11.034;2024-03-17T14:54:13;5.30;;;2.97;;
75626;SDS011;67372;49.404;11.034;2024-03-17T14:56:38;6.75;;;3.00;;
75626;SDS011;67372;49.404;11.034;2024-03-17T14:59:04;6.38;;;2.97;;
75626;SDS011;67372;49.404;11.034;2024-03-17T15:01:29;5.93;;;3.30;;
75626;SDS011;67372;49.404;11.034;2024-03-17T15:03:57;5.25;;;2.95;;
75626;SDS011;67372;49.404;11.034;2024-03-17T15:06:23;5.28;;;3.28;;